createdAt,value
2022-09-03T00:02:35.678Z,17.71
2022-09-03T00:05:14.481Z,17.57
2022-09-03T00:08:07.189Z,17.55
2022-09-03T00:10:52.549Z,17.60
2022-09-03T00:13:33.544Z,17.58
2022-09-03T00:16:03.291Z,17.52
2022-09-03T00:18:35.235Z,17.27
2022-09-03T00:21:08.649Z,17.46
2022-09-03T00:23:40.167Z,17.25
2022-09-03T00:26:12.632Z,17.44
2022-09-03T00:28:45.251Z,17.35
2022-09-03T00:31:27.418Z,17.34
2022-09-03T00:34:02.553Z,17.35
2022-09-03T00:36:43.868Z,17.36
2022-09-03T00:39:12.767Z,17.30
2022-09-03T00:41:52.359Z,17.24
2022-09-03T00:44:43.409Z,17.18
2022-09-03T00:47:13.438Z,16.98
2022-09-03T00:49:52.448Z,17.13
2022-09-03T00:52:23.336Z,17.15
2022-09-03T00:55:07.041Z,17.16
2022-09-03T00:57:47.880Z,17.14
2022-09-03T01:00:19.992Z,17.15
2022-09-03T01:03:10.663Z,17.11
2022-09-03T01:05:53.158Z,17.10
2022-09-03T01:08:57.678Z,17.03
2022-09-03T01:12:13.465Z,17.00
2022-09-03T01:14:55.277Z,16.96
2022-09-03T01:17:42.915Z,16.95
2022-09-03T01:20:15.423Z,16.98
2022-09-03T01:23:21.069Z,16.99
2022-09-03T01:26:16.337Z,16.99
2022-09-03T01:29:12.295Z,16.95
2022-09-03T01:31:51.319Z,16.91
2022-09-03T01:34:33.032Z,16.90
2022-09-03T01:37:08.412Z,16.92
2022-09-03T01:39:46.965Z,16.84
2022-09-03T01:42:40.899Z,16.81
2022-09-03T01:45:29.173Z,16.76
2022-09-03T01:48:11.232Z,16.67
2022-09-03T01:50:46.699Z,16.77
2022-09-03T01:53:39.404Z,16.76
2022-09-03T01:56:19.447Z,16.65
2022-09-03T01:58:56.900Z,16.72
2022-09-03T02:01:32.721Z,16.68
2022-09-03T02:04:00.187Z,16.61
2022-09-03T02:06:28.023Z,16.49
2022-09-03T02:08:54.431Z,16.52
2022-09-03T02:11:21.070Z,16.47
2022-09-03T02:13:51.950Z,16.42
2022-09-03T02:16:24.309Z,16.37
2022-09-03T02:18:55.645Z,16.33
2022-09-03T02:21:24.706Z,16.32
2022-09-03T02:23:51.814Z,16.30
2022-09-03T02:26:23.910Z,16.30
2022-09-03T02:28:51.974Z,16.28
2022-09-03T02:31:19.231Z,16.26
2022-09-03T02:33:48.989Z,16.22
2022-09-03T02:36:20.321Z,16.20
2022-09-03T02:38:47.460Z,16.21
2022-09-03T02:41:15.120Z,16.19
2022-09-03T02:43:53.787Z,16.10
2022-09-03T02:46:23.509Z,16.04
2022-09-03T02:48:49.952Z,16.07
2022-09-03T02:51:16.453Z,16.06
2022-09-03T02:53:43.428Z,16.03
2022-09-03T02:56:10.282Z,16.04
2022-09-03T02:58:37.030Z,16.01
2022-09-03T03:01:04.604Z,15.97
2022-09-03T03:03:31.398Z,15.94
2022-09-03T03:06:04.648Z,15.95
2022-09-03T03:08:32.956Z,15.91
2022-09-03T03:11:00.732Z,15.86
2022-09-03T03:13:28.131Z,15.81
2022-09-03T03:15:59.599Z,15.72
2022-09-03T03:18:26.399Z,15.66
2022-09-03T03:20:52.819Z,15.65
2022-09-03T03:23:19.459Z,15.64
2022-09-03T03:25:45.869Z,15.64
2022-09-03T03:28:13.872Z,15.62
2022-09-03T03:30:42.732Z,15.63
2022-09-03T03:33:10.254Z,15.62
2022-09-03T03:35:36.791Z,15.60
2022-09-03T03:38:04.124Z,15.53
2022-09-03T03:40:31.374Z,15.53
2022-09-03T03:42:58.864Z,15.52
2022-09-03T03:45:26.406Z,15.50
2022-09-03T03:47:57.480Z,15.43
2022-09-03T03:50:23.935Z,15.30
2022-09-03T03:52:50.944Z,15.26
2022-09-03T03:55:17.372Z,15.25
2022-09-03T03:57:43.969Z,15.27
2022-09-03T04:00:10.781Z,15.26
2022-09-03T04:02:39.146Z,15.24
2022-09-03T04:05:06.250Z,15.20
2022-09-03T04:07:34.118Z,15.13
2022-09-03T04:10:00.622Z,15.10
2022-09-03T04:12:27.737Z,15.05
2022-09-03T04:14:54.199Z,15.03
2022-09-03T04:17:25.002Z,15.03
2022-09-03T04:19:51.730Z,15.05
2022-09-03T04:22:19.146Z,15.00
2022-09-03T04:24:45.729Z,14.97
2022-09-03T04:27:12.209Z,14.93
2022-09-03T04:29:38.621Z,14.96
2022-09-03T04:32:24.323Z,14.97
2022-09-03T04:34:50.778Z,14.97
2022-09-03T04:37:19.810Z,14.92
2022-09-03T04:39:46.291Z,14.88
2022-09-03T04:42:13.200Z,14.79
2022-09-03T04:44:41.093Z,14.86
2022-09-03T04:47:07.589Z,14.84
2022-09-03T04:49:34.611Z,14.76
2022-09-03T04:52:01.456Z,14.76
2022-09-03T04:54:29.218Z,14.79
2022-09-03T04:56:56.300Z,14.80
2022-09-03T04:59:22.888Z,14.73
2022-09-03T05:01:49.359Z,14.67
2022-09-03T05:04:15.767Z,14.66
2022-09-03T05:06:43.400Z,14.62
2022-09-03T05:09:09.829Z,14.62
2022-09-03T05:11:36.933Z,14.66
2022-09-03T05:14:06.055Z,14.66
2022-09-03T05:16:32.630Z,14.67
2022-09-03T05:19:01.311Z,14.67
2022-09-03T05:21:29.335Z,14.69
2022-09-03T05:23:56.356Z,14.69
2022-09-03T05:26:25.679Z,14.69
2022-09-03T05:29:00.102Z,14.73
2022-09-03T05:31:29.231Z,14.71
2022-09-03T05:33:58.638Z,14.73
2022-09-03T05:36:28.310Z,14.79
2022-09-03T05:38:55.025Z,14.78
2022-09-03T05:41:23.153Z,14.80
2022-09-03T05:43:59.127Z,14.77
2022-09-03T05:46:32.647Z,14.63
2022-09-03T05:49:01.339Z,14.75
2022-09-03T05:51:28.651Z,14.75
2022-09-03T05:53:55.623Z,14.75
2022-09-03T05:56:24.207Z,14.82
2022-09-03T05:58:52.885Z,14.87
2022-09-03T06:01:25.106Z,14.85
2022-09-03T06:04:03.462Z,14.89
2022-09-03T06:06:33.634Z,14.72
2022-09-03T06:09:16.733Z,14.99
2022-09-03T06:11:44.040Z,15.06
2022-09-03T06:14:14.352Z,15.14
2022-09-03T06:16:43.668Z,15.25
2022-09-03T06:19:11.607Z,15.37
2022-09-03T06:21:47.949Z,15.43
2022-09-03T06:24:26.527Z,15.49
2022-09-03T06:26:54.630Z,15.62
2022-09-03T06:29:21.981Z,15.72
2022-09-03T06:31:48.843Z,15.80
2022-09-03T06:34:18.554Z,15.90
2022-09-03T06:36:45.778Z,16.03
2022-09-03T06:39:12.506Z,16.10
2022-09-03T06:41:40.026Z,16.22
2022-09-03T06:44:11.752Z,16.38
2022-09-03T06:46:42.496Z,16.47
2022-09-03T06:49:11.538Z,16.58
2022-09-03T06:51:39.240Z,16.62
2022-09-03T06:54:10.854Z,16.59
2022-09-03T06:56:40.738Z,16.70
2022-09-03T06:59:13.596Z,16.67
2022-09-03T07:01:44.611Z,16.76
2022-09-03T07:04:13.339Z,16.88
2022-09-03T07:06:42.646Z,16.96
2022-09-03T07:09:11.227Z,17.12
2022-09-03T07:11:40.206Z,17.16
2022-09-03T07:14:06.619Z,17.23
2022-09-03T07:16:35.510Z,17.33
2022-09-03T07:19:04.606Z,17.48
2022-09-03T07:21:34.042Z,17.67
2022-09-03T07:24:00.501Z,17.85
2022-09-03T07:26:30.257Z,17.93
2022-09-03T07:28:58.345Z,17.97
2022-09-03T07:31:31.153Z,17.98
2022-09-03T07:33:58.794Z,18.20
2022-09-03T07:36:27.605Z,18.34
2022-09-03T07:38:59.070Z,18.46
2022-09-03T07:41:28.968Z,18.58
2022-09-03T07:43:55.792Z,18.68
2022-09-03T07:46:24.856Z,18.75
2022-09-03T07:48:56.087Z,18.85
2022-09-03T07:51:27.876Z,18.92
2022-09-03T07:53:57.703Z,18.78
2022-09-03T07:56:25.634Z,18.80
2022-09-03T07:58:52.804Z,18.91
2022-09-03T08:01:22.151Z,19.13
2022-09-03T08:03:50.832Z,19.22
2022-09-03T08:06:20.175Z,19.37
2022-09-03T08:08:46.713Z,19.40
2022-09-03T08:11:19.300Z,19.45
2022-09-03T08:13:48.496Z,19.47
2022-09-03T08:16:18.583Z,19.49
2022-09-03T08:18:47.463Z,19.69
2022-09-03T08:21:17.041Z,19.79
2022-09-03T08:23:45.873Z,19.84
2022-09-03T08:26:14.004Z,19.97
2022-09-03T08:28:41.641Z,20.01
2022-09-03T08:31:11.845Z,20.01
2022-09-03T08:33:43.504Z,20.05
2022-09-03T08:36:15.103Z,20.24
2022-09-03T08:38:45.526Z,20.38
2022-09-03T08:41:18.348Z,20.54
2022-09-03T08:44:05.154Z,20.69
2022-09-03T08:46:51.471Z,20.87
2022-09-03T08:49:47.238Z,21.23
2022-09-03T08:52:49.946Z,21.53
2022-09-03T08:55:20.345Z,21.93
2022-09-03T08:58:07.099Z,22.31
2022-09-03T09:00:46.399Z,22.55
2022-09-03T09:03:42.501Z,22.90
2022-09-03T09:06:18.774Z,23.18
2022-09-03T09:09:12.974Z,23.89
2022-09-03T09:12:10.334Z,23.63
2022-09-03T09:15:00.318Z,23.98
2022-09-03T09:17:59.563Z,23.80
2022-09-03T09:20:42.712Z,23.64
2022-09-03T09:23:14.611Z,23.69
2022-09-03T09:25:48.951Z,23.98
2022-09-03T09:28:21.226Z,23.55
2022-09-03T09:30:50.290Z,23.96
2022-09-03T09:33:17.848Z,24.31
2022-09-03T09:35:45.602Z,24.73
2022-09-03T09:38:13.129Z,24.94
2022-09-03T09:40:45.668Z,24.88
2022-09-03T09:43:17.799Z,25.26
2022-09-03T09:45:47.154Z,25.18
2022-09-03T09:48:16.677Z,25.10
2022-09-03T09:50:43.144Z,25.47
2022-09-03T09:53:17.962Z,25.46
2022-09-03T09:55:55.416Z,25.45
2022-09-03T09:58:33.157Z,25.25
2022-09-03T10:01:03.231Z,25.23
2022-09-03T10:03:35.074Z,25.05
2022-09-03T10:06:27.878Z,24.88
2022-09-03T10:09:07.442Z,24.84
2022-09-03T10:11:39.806Z,24.53
2022-09-03T10:14:15.310Z,24.49
2022-09-03T10:16:48.859Z,24.47
2022-09-03T10:19:35.271Z,24.53
2022-09-03T10:22:09.297Z,24.45
2022-09-03T10:24:59.552Z,24.60
2022-09-03T10:27:26.520Z,24.53
2022-09-03T10:29:53.495Z,24.73
2022-09-03T10:32:50.926Z,24.83
2022-09-03T10:35:30.493Z,24.37
2022-09-03T10:38:32.093Z,24.73
2022-09-03T10:41:10.770Z,24.83
2022-09-03T10:44:10.260Z,24.84
2022-09-03T10:47:01.575Z,24.98
2022-09-03T10:49:41.116Z,24.88
2022-09-03T10:52:34.282Z,24.92
2022-09-03T10:55:15.345Z,25.21
2022-09-03T10:58:13.463Z,25.02
2022-09-03T11:00:49.917Z,25.13
2022-09-03T11:03:43.226Z,25.08
2022-09-03T11:06:24.616Z,24.99
2022-09-03T11:09:22.611Z,25.03
2022-09-03T11:11:54.779Z,25.19
2022-09-03T11:14:31.976Z,25.29
2022-09-03T11:17:29.734Z,25.31
2022-09-03T11:20:12.635Z,25.45
2022-09-03T11:22:41.042Z,25.65
2022-09-03T11:25:10.316Z,25.52
2022-09-03T11:27:42.908Z,25.53
2022-09-03T11:30:14.562Z,25.37
2022-09-03T11:32:46.769Z,25.48
2022-09-03T11:35:16.287Z,25.48
2022-09-03T11:37:53.563Z,25.39
2022-09-03T11:40:21.838Z,25.71
2022-09-03T11:42:48.382Z,25.56
2022-09-03T11:45:36.552Z,25.63
2022-09-03T11:48:18.075Z,25.80
2022-09-03T11:50:54.326Z,25.84
2022-09-03T11:53:20.723Z,25.87
2022-09-03T11:55:53.601Z,25.93
2022-09-03T11:58:36.678Z,25.82
2022-09-03T12:01:09.061Z,25.77
2022-09-03T12:03:51.468Z,25.75
2022-09-03T12:06:36.568Z,25.83
2022-09-03T12:09:06.835Z,25.99
2022-09-03T12:11:45.772Z,26.06
2022-09-03T12:14:31.731Z,26.00
2022-09-03T12:17:22.435Z,26.01
2022-09-03T12:19:55.805Z,25.77
2022-09-03T12:22:28.866Z,25.89
2022-09-03T12:24:56.353Z,25.91
2022-09-03T12:27:26.150Z,26.07
2022-09-03T12:30:00.703Z,26.19
2022-09-03T12:32:32.560Z,26.04
2022-09-03T12:35:11.436Z,25.83
2022-09-03T12:40:27.633Z,25.92
2022-09-03T12:46:13.293Z,26.03
2022-09-03T12:48:46.943Z,25.94
2022-09-03T12:54:01.383Z,25.91
2022-09-03T12:56:34.603Z,25.94
2022-09-03T12:59:10.783Z,25.91
2022-09-03T13:01:47.926Z,26.00
2022-09-03T13:04:20.525Z,25.92
2022-09-03T13:06:56.487Z,25.71
2022-09-03T13:09:26.446Z,25.75
2022-09-03T13:11:55.457Z,25.83
2022-09-03T13:14:22.299Z,25.92
2022-09-03T13:17:03.218Z,26.03
2022-09-03T13:19:40.544Z,26.04
2022-09-03T13:22:50.291Z,25.89
2022-09-03T13:25:22.548Z,26.01
2022-09-03T13:27:54.942Z,25.95
2022-09-03T13:30:23.412Z,25.88
2022-09-03T13:33:01.765Z,25.89
2022-09-03T13:35:40.143Z,25.93
2022-09-03T13:38:27.802Z,25.83
2022-09-03T13:41:36.441Z,25.82
2022-09-03T13:44:09.214Z,25.71
2022-09-03T13:46:58.528Z,25.72
2022-09-03T13:49:57.561Z,25.69
2022-09-03T13:52:49.289Z,25.75
2022-09-03T13:55:26.150Z,25.75
2022-09-03T13:58:01.890Z,25.72
2022-09-03T14:00:40.581Z,25.68
2022-09-03T14:03:48.597Z,25.63
2022-09-03T14:06:57.357Z,25.77
2022-09-03T14:09:35.625Z,25.75
2022-09-03T14:12:20.300Z,25.75
2022-09-03T14:15:03.635Z,25.71
2022-09-03T14:17:51.907Z,25.68
2022-09-03T14:20:44.544Z,25.70
2022-09-03T14:23:27.758Z,25.74
2022-09-03T14:25:55.864Z,25.78
2022-09-03T14:28:40.189Z,25.53
2022-09-03T14:31:28.095Z,25.54
2022-09-03T14:34:09.969Z,25.47
2022-09-03T14:36:57.097Z,25.55
2022-09-03T14:39:32.892Z,25.71
2022-09-03T14:42:06.819Z,25.81
2022-09-03T14:44:43.666Z,25.76
2022-09-03T14:47:25.712Z,25.64
2022-09-03T14:50:10.571Z,25.63
2022-09-03T14:53:02.789Z,25.69
2022-09-03T14:55:42.711Z,25.73
2022-09-03T14:58:32.491Z,25.78
2022-09-03T15:01:06.919Z,25.70
2022-09-03T15:03:57.469Z,25.57
2022-09-03T15:07:05.745Z,25.49
2022-09-03T15:09:32.132Z,25.59
2022-09-03T15:12:23.045Z,25.62
2022-09-03T15:14:54.834Z,25.57
2022-09-03T15:17:43.157Z,25.53
2022-09-03T15:20:23.736Z,25.57
2022-09-03T15:23:11.845Z,25.53
2022-09-03T15:26:15.670Z,25.50
2022-09-03T15:29:36.720Z,25.46
2022-09-03T15:32:20.536Z,25.40
2022-09-03T15:35:19.407Z,25.46
2022-09-03T15:37:48.954Z,25.52
2022-09-03T15:40:29.990Z,25.64
2022-09-03T15:43:05.205Z,25.52
2022-09-03T15:45:39.806Z,25.44
2022-09-03T15:48:20.317Z,25.60
2022-09-03T15:50:55.355Z,25.60
2022-09-03T15:53:46.002Z,25.57
2022-09-03T15:56:25.069Z,25.41
2022-09-03T15:59:19.728Z,25.30
2022-09-03T16:02:11.119Z,25.16
2022-09-03T16:04:46.846Z,25.30
2022-09-03T16:07:21.396Z,25.33
2022-09-03T16:10:30.280Z,25.32
2022-09-03T16:13:04.570Z,25.29
2022-09-03T16:15:43.291Z,25.23
2022-09-03T16:18:17.319Z,25.25
2022-09-03T16:20:48.307Z,25.20
2022-09-03T16:23:27.469Z,25.23
2022-09-03T16:26:15.558Z,25.27
2022-09-03T16:28:52.139Z,25.29
2022-09-03T16:31:38.180Z,25.27
2022-09-03T16:34:23.019Z,25.26
2022-09-03T16:37:07.727Z,25.18
2022-09-03T16:40:00.809Z,25.19
2022-09-03T16:42:45.480Z,25.27
2022-09-03T16:45:27.294Z,25.20
2022-09-03T16:48:07.167Z,25.14
2022-09-03T16:50:52.075Z,25.12
2022-09-03T16:53:30.843Z,25.08
2022-09-03T16:56:16.237Z,25.05
2022-09-03T16:59:19.927Z,25.06
2022-09-03T17:02:40.493Z,25.03
2022-09-03T17:05:48.511Z,25.02
2022-09-03T17:08:30.772Z,24.99
2022-09-03T17:11:11.829Z,24.89
2022-09-03T17:14:04.107Z,24.87
2022-09-03T17:16:52.494Z,24.79
2022-09-03T17:19:35.479Z,24.67
2022-09-03T17:22:21.987Z,24.71
2022-09-03T17:25:03.884Z,24.60
2022-09-03T17:27:49.231Z,24.67
2022-09-03T17:30:20.758Z,24.61
2022-09-03T17:33:04.336Z,24.58
2022-09-03T17:35:40.000Z,24.53
2022-09-03T17:38:39.268Z,24.47
2022-09-03T17:41:53.279Z,24.38
2022-09-03T17:44:41.790Z,24.32
2022-09-03T17:47:32.789Z,24.26
2022-09-03T17:50:11.519Z,24.21
2022-09-03T17:52:55.614Z,24.16
2022-09-03T17:55:45.210Z,23.97
2022-09-03T17:58:17.093Z,24.02
2022-09-03T18:00:55.393Z,24.01
2022-09-03T18:03:32.863Z,23.93
2022-09-03T18:06:04.517Z,23.90
2022-09-03T18:08:44.436Z,23.83
2022-09-03T18:11:21.058Z,23.65
2022-09-03T18:14:04.517Z,23.51
2022-09-03T18:16:37.630Z,23.65
2022-09-03T18:19:30.258Z,23.60
2022-09-03T18:22:21.033Z,23.48
2022-09-03T18:25:18.000Z,23.19
2022-09-03T18:28:21.802Z,23.24
2022-09-03T18:31:11.331Z,23.13
2022-09-03T18:33:56.242Z,23.06
2022-09-03T18:36:42.177Z,23.03
2022-09-03T18:39:30.032Z,23.02
2022-09-03T18:42:33.067Z,22.97
2022-09-03T18:46:05.189Z,22.90
2022-09-03T18:49:15.381Z,22.88
2022-09-03T18:52:44.265Z,22.89
2022-09-03T18:55:41.549Z,22.85
2022-09-03T18:58:38.089Z,22.78
2022-09-03T19:01:36.604Z,22.69
2022-09-03T19:04:43.009Z,22.69
2022-09-03T19:07:53.826Z,22.59
2022-09-03T19:10:56.906Z,22.39
2022-09-03T19:13:52.850Z,22.40
2022-09-03T19:16:43.913Z,22.39
2022-09-03T19:20:01.594Z,22.43
2022-09-03T19:22:59.228Z,22.47
2022-09-03T19:25:46.650Z,22.50
2022-09-03T19:28:39.207Z,22.48
2022-09-03T19:31:43.282Z,22.42
2022-09-03T19:35:04.322Z,22.32
2022-09-03T19:37:59.803Z,22.31
2022-09-03T19:41:10.623Z,22.30
2022-09-03T19:44:24.147Z,22.30
2022-09-03T19:47:13.622Z,22.10
2022-09-03T19:50:10.103Z,22.25
2022-09-03T19:53:04.181Z,22.23
2022-09-03T19:55:55.284Z,22.22
2022-09-03T19:58:44.665Z,22.15
2022-09-03T20:01:30.661Z,21.99
2022-09-03T20:04:19.501Z,22.04
2022-09-03T20:07:05.703Z,21.94
2022-09-03T20:09:59.768Z,21.89
2022-09-03T20:12:31.246Z,21.77
2022-09-03T20:14:57.777Z,21.80
2022-09-03T20:17:24.877Z,21.78
2022-09-03T20:20:26.613Z,21.69
2022-09-03T20:22:59.510Z,21.66
2022-09-03T20:25:43.123Z,21.65
2022-09-03T20:28:28.199Z,21.54
2022-09-03T20:31:02.804Z,21.48
2022-09-03T20:33:42.102Z,21.48
2022-09-03T20:36:26.966Z,21.48
2022-09-03T20:39:24.700Z,21.46
2022-09-03T20:42:19.102Z,21.41
2022-09-03T20:45:25.203Z,21.36
2022-09-03T20:48:05.557Z,21.29
2022-09-03T20:51:04.017Z,21.26
2022-09-03T20:53:59.199Z,21.33
2022-09-03T20:56:33.785Z,21.33
2022-09-03T20:59:12.437Z,21.31
2022-09-03T21:01:44.655Z,21.31
2022-09-03T21:04:38.063Z,21.29
2022-09-03T21:07:07.420Z,21.24
2022-09-03T21:10:00.371Z,21.06
2022-09-03T21:12:41.830Z,21.10
2022-09-03T21:15:18.912Z,20.86
2022-09-03T21:18:01.419Z,21.02
2022-09-03T21:20:47.769Z,20.93
2022-09-03T21:23:29.658Z,20.85
2022-09-03T21:26:31.485Z,20.77
2022-09-03T21:29:08.955Z,20.70
2022-09-03T21:31:46.632Z,20.59
2022-09-03T21:34:20.748Z,20.36
2022-09-03T21:36:49.218Z,20.52
2022-09-03T21:39:25.883Z,20.54
2022-09-03T21:42:00.637Z,20.56
2022-09-03T21:44:39.366Z,20.54
2022-09-03T21:47:10.559Z,20.49
2022-09-03T21:50:04.737Z,20.41
2022-09-03T21:52:42.362Z,20.30
2022-09-03T21:55:30.098Z,20.08
2022-09-03T21:58:21.691Z,20.26
2022-09-03T22:00:51.871Z,20.21
2022-09-03T22:03:19.273Z,20.18
2022-09-03T22:06:05.584Z,20.04
2022-09-03T22:08:45.376Z,20.07
2022-09-03T22:11:29.618Z,19.93
2022-09-03T22:14:16.818Z,19.99
2022-09-03T22:16:54.881Z,19.74
2022-09-03T22:19:21.338Z,19.81
2022-09-03T22:22:00.147Z,19.76
2022-09-03T22:24:53.110Z,19.65
2022-09-03T22:28:11.177Z,19.63
2022-09-03T22:31:00.753Z,19.53
2022-09-03T22:33:43.157Z,19.45
2022-09-03T22:36:16.101Z,19.34
2022-09-03T22:38:51.318Z,19.37
2022-09-03T22:41:34.752Z,19.28
2022-09-03T22:44:07.398Z,19.21
2022-09-03T22:47:16.648Z,19.19
2022-09-03T22:49:54.666Z,19.17
2022-09-03T22:52:36.317Z,19.14
2022-09-03T22:55:23.091Z,19.13
2022-09-03T22:57:56.100Z,19.13
2022-09-03T23:00:23.036Z,19.11
2022-09-03T23:03:07.082Z,19.02
2022-09-03T23:05:36.175Z,19.03
2022-09-03T23:08:27.434Z,18.92
2022-09-03T23:11:05.763Z,18.88
2022-09-03T23:13:41.977Z,18.86
2022-09-03T23:16:42.490Z,18.84
2022-09-03T23:19:36.526Z,18.73
2022-09-03T23:22:07.681Z,18.71
2022-09-03T23:24:39.803Z,18.52
2022-09-03T23:27:10.675Z,18.65
2022-09-03T23:29:56.790Z,18.66
2022-09-03T23:32:25.595Z,18.56
2022-09-03T23:35:00.194Z,18.42
2022-09-03T23:37:48.829Z,18.42
2022-09-03T23:40:46.022Z,18.42
2022-09-03T23:43:56.331Z,18.40
2022-09-03T23:46:34.610Z,18.41
2022-09-03T23:49:18.455Z,18.35
2022-09-03T23:52:03.662Z,18.45
2022-09-03T23:54:42.165Z,18.37
2022-09-03T23:57:20.447Z,18.40
2022-09-03T23:59:49.521Z,18.45
